sensor_id;sensor_type;location;lat;lon;timestamp;P1;durP1;ratioP1;P2;durP2;ratioP2
78877;SDS011;68257;43.514;1.498;2024-02-16T00:01:34;10.88;;;2.25;;
78877;SDS011;68257;43.514;1.498;2024-02-16T00:04:01;8.63;;;2.23;;
78877;SDS011;68257;43.514;1.498;2024-02-16T00:06:26;16.30;;;2.53;;
78877;SDS011;68257;43.514;1.498;2024-02-16T00:08:52;8.93;;;2.00;;
78877;SDS011;68257;43.514;1.498;2024-02-16T00:11:17;10.83;;;2.40;;
78877;SDS011;68257;43.514;1.498;2024-02-16T00:13:42;11.10;;;2.23;;
78877;SDS011;68257;43.514;1.498;2024-02-16T00:16:08;13.27;;;2.77;;
78877;SDS011;68257;43.514;1.498;2024-02-16T00:18:33;9.27;;;2.20;;
78877;SDS011;68257;43.514;1.498;2024-02-16T00:20:58;10.02;;;2.13;;
78877;SDS011;68257;43.514;1.498;2024-02-16T00:23:24;11.85;;;2.00;;
78877;SDS011;68257;43.514;1.498;2024-02-16T00:25:50;11.10;;;3.03;;
78877;SDS011;68257;43.514;1.498;2024-02-16T00:28:16;10.38;;;2.10;;
78877;SDS011;68257;43.514;1.498;2024-02-16T00:30:41;9.70;;;2.57;;
78877;SDS011;68257;43.514;1.498;2024-02-16T00:33:06;10.27;;;2.20;;
78877;SDS011;68257;43.514;1.498;2024-02-16T00:35:32;9.27;;;2.05;;
78877;SDS011;68257;43.514;1.498;2024-02-16T00:37:59;12.87;;;2.07;;
78877;SDS011;68257;43.514;1.498;2024-02-16T00:40:24;10.13;;;2.15;;
78877;SDS011;68257;43.514;1.498;2024-02-16T00:42:51;8.32;;;2.20;;
78877;SDS011;68257;43.514;1.498;2024-02-16T00:45:17;10.07;;;2.30;;
78877;SDS011;68257;43.514;1.498;2024-02-16T00:47:42;13.67;;;2.30;;
78877;SDS011;68257;43.514;1.498;2024-02-16T00:50:10;10.15;;;2.13;;
78877;SDS011;68257;43.514;1.498;2024-02-16T00:52:35;8.35;;;1.95;;
78877;SDS011;68257;43.514;1.498;2024-02-16T00:55:02;9.57;;;2.38;;
78877;SDS011;68257;43.514;1.498;2024-02-16T00:57:29;11.17;;;2.63;;
78877;SDS011;68257;43.514;1.498;2024-02-16T00:59:54;8.15;;;2.20;;
78877;SDS011;68257;43.514;1.498;2024-02-16T01:02:20;9.67;;;2.10;;
78877;SDS011;68257;43.514;1.498;2024-02-16T01:04:45;9.93;;;2.20;;
78877;SDS011;68257;43.514;1.498;2024-02-16T01:07:12;12.13;;;2.20;;
78877;SDS011;68257;43.514;1.498;2024-02-16T01:09:37;9.63;;;2.20;;
78877;SDS011;68257;43.514;1.498;2024-02-16T01:12:02;15.33;;;2.80;;
78877;SDS011;68257;43.514;1.498;2024-02-16T01:14:28;11.07;;;2.40;;
78877;SDS011;68257;43.514;1.498;2024-02-16T01:16:53;10.65;;;2.50;;
78877;SDS011;68257;43.514;1.498;2024-02-16T01:19:18;12.48;;;2.65;;
78877;SDS011;68257;43.514;1.498;2024-02-16T01:21:44;9.13;;;2.30;;
78877;SDS011;68257;43.514;1.498;2024-02-16T01:24:12;10.10;;;2.33;;
78877;SDS011;68257;43.514;1.498;2024-02-16T01:26:38;11.40;;;2.35;;
78877;SDS011;68257;43.514;1.498;2024-02-16T01:29:03;7.87;;;2.10;;
78877;SDS011;68257;43.514;1.498;2024-02-16T01:31:29;10.77;;;2.47;;
78877;SDS011;68257;43.514;1.498;2024-02-16T01:33:55;11.57;;;2.20;;
78877;SDS011;68257;43.514;1.498;2024-02-16T01:36:21;9.75;;;2.17;;
78877;SDS011;68257;43.514;1.498;2024-02-16T01:38:46;12.98;;;2.13;;
78877;SDS011;68257;43.514;1.498;2024-02-16T01:41:11;10.57;;;2.23;;
78877;SDS011;68257;43.514;1.498;2024-02-16T01:43:39;11.82;;;2.22;;
78877;SDS011;68257;43.514;1.498;2024-02-16T01:46:05;8.33;;;2.37;;
78877;SDS011;68257;43.514;1.498;2024-02-16T01:48:30;9.03;;;2.20;;
78877;SDS011;68257;43.514;1.498;2024-02-16T01:50:56;12.85;;;2.45;;
78877;SDS011;68257;43.514;1.498;2024-02-16T01:53:22;10.90;;;2.58;;
78877;SDS011;68257;43.514;1.498;2024-02-16T01:55:48;10.80;;;2.78;;
78877;SDS011;68257;43.514;1.498;2024-02-16T01:58:14;11.73;;;2.37;;
78877;SDS011;68257;43.514;1.498;2024-02-16T02:00:42;14.07;;;2.55;;
78877;SDS011;68257;43.514;1.498;2024-02-16T02:03:07;12.25;;;2.80;;
78877;SDS011;68257;43.514;1.498;2024-02-16T02:05:33;12.73;;;3.13;;
78877;SDS011;68257;43.514;1.498;2024-02-16T02:07:58;12.18;;;2.35;;
78877;SDS011;68257;43.514;1.498;2024-02-16T02:10:24;11.70;;;2.70;;
78877;SDS011;68257;43.514;1.498;2024-02-16T02:12:49;7.33;;;2.20;;
78877;SDS011;68257;43.514;1.498;2024-02-16T02:15:15;13.33;;;2.57;;
78877;SDS011;68257;43.514;1.498;2024-02-16T02:17:40;10.05;;;2.55;;
78877;SDS011;68257;43.514;1.498;2024-02-16T02:20:06;8.77;;;2.25;;
78877;SDS011;68257;43.514;1.498;2024-02-16T02:22:37;11.43;;;2.50;;
78877;SDS011;68257;43.514;1.498;2024-02-16T02:25:03;11.87;;;2.50;;
78877;SDS011;68257;43.514;1.498;2024-02-16T02:27:29;9.63;;;2.30;;
78877;SDS011;68257;43.514;1.498;2024-02-16T02:29:55;15.35;;;2.65;;
78877;SDS011;68257;43.514;1.498;2024-02-16T02:32:20;11.40;;;2.85;;
78877;SDS011;68257;43.514;1.498;2024-02-16T02:34:46;10.33;;;2.43;;
78877;SDS011;68257;43.514;1.498;2024-02-16T02:37:11;10.37;;;2.70;;
78877;SDS011;68257;43.514;1.498;2024-02-16T02:39:37;13.70;;;3.10;;
78877;SDS011;68257;43.514;1.498;2024-02-16T02:42:02;10.40;;;2.43;;
78877;SDS011;68257;43.514;1.498;2024-02-16T02:44:28;9.67;;;2.47;;
78877;SDS011;68257;43.514;1.498;2024-02-16T02:46:56;14.85;;;2.95;;
78877;SDS011;68257;43.514;1.498;2024-02-16T02:49:21;9.67;;;2.50;;
78877;SDS011;68257;43.514;1.498;2024-02-16T02:51:47;9.57;;;2.50;;
78877;SDS011;68257;43.514;1.498;2024-02-16T02:54:12;10.50;;;2.65;;
78877;SDS011;68257;43.514;1.498;2024-02-16T02:56:38;14.03;;;3.13;;
78877;SDS011;68257;43.514;1.498;2024-02-16T02:59:03;9.87;;;2.33;;
78877;SDS011;68257;43.514;1.498;2024-02-16T03:01:30;12.75;;;2.50;;
78877;SDS011;68257;43.514;1.498;2024-02-16T03:03:56;12.07;;;2.73;;
78877;SDS011;68257;43.514;1.498;2024-02-16T03:06:22;13.02;;;2.70;;
78877;SDS011;68257;43.514;1.498;2024-02-16T03:08:48;9.40;;;2.63;;
78877;SDS011;68257;43.514;1.498;2024-02-16T03:11:14;12.40;;;2.73;;
78877;SDS011;68257;43.514;1.498;2024-02-16T03:13:39;13.27;;;2.60;;
78877;SDS011;68257;43.514;1.498;2024-02-16T03:16:05;10.75;;;2.42;;
78877;SDS011;68257;43.514;1.498;2024-02-16T03:18:30;13.43;;;2.50;;
78877;SDS011;68257;43.514;1.498;2024-02-16T03:20:57;11.77;;;2.40;;
78877;SDS011;68257;43.514;1.498;2024-02-16T03:23:22;10.67;;;2.33;;
78877;SDS011;68257;43.514;1.498;2024-02-16T03:25:48;8.70;;;2.35;;
78877;SDS011;68257;43.514;1.498;2024-02-16T03:28:14;12.68;;;2.78;;
78877;SDS011;68257;43.514;1.498;2024-02-16T03:30:40;11.60;;;2.53;;
78877;SDS011;68257;43.514;1.498;2024-02-16T03:33:06;10.77;;;2.80;;
78877;SDS011;68257;43.514;1.498;2024-02-16T03:35:32;9.52;;;3.05;;
78877;SDS011;68257;43.514;1.498;2024-02-16T03:37:58;10.40;;;2.60;;
78877;SDS011;68257;43.514;1.498;2024-02-16T03:40:24;8.70;;;2.70;;
78877;SDS011;68257;43.514;1.498;2024-02-16T03:42:50;12.20;;;3.10;;
78877;SDS011;68257;43.514;1.498;2024-02-16T03:45:15;9.48;;;3.17;;
78877;SDS011;68257;43.514;1.498;2024-02-16T03:47:41;11.50;;;3.00;;
78877;SDS011;68257;43.514;1.498;2024-02-16T03:50:09;12.93;;;3.47;;
78877;SDS011;68257;43.514;1.498;2024-02-16T03:52:36;13.98;;;3.55;;
78877;SDS011;68257;43.514;1.498;2024-02-16T03:55:01;13.50;;;3.87;;
78877;SDS011;68257;43.514;1.498;2024-02-16T03:57:27;13.32;;;3.50;;
78877;SDS011;68257;43.514;1.498;2024-02-16T03:59:52;8.57;;;3.50;;
78877;SDS011;68257;43.514;1.498;2024-02-16T04:02:17;15.37;;;4.13;;
78877;SDS011;68257;43.514;1.498;2024-02-16T04:04:43;15.77;;;3.60;;
78877;SDS011;68257;43.514;1.498;2024-02-16T04:07:09;11.77;;;3.83;;
78877;SDS011;68257;43.514;1.498;2024-02-16T04:09:34;14.27;;;4.20;;
78877;SDS011;68257;43.514;1.498;2024-02-16T04:12:00;14.55;;;3.97;;
78877;SDS011;68257;43.514;1.498;2024-02-16T04:14:26;14.52;;;4.05;;
78877;SDS011;68257;43.514;1.498;2024-02-16T04:16:52;14.70;;;3.85;;
78877;SDS011;68257;43.514;1.498;2024-02-16T04:19:17;11.40;;;4.17;;
78877;SDS011;68257;43.514;1.498;2024-02-16T04:21:43;12.20;;;4.00;;
78877;SDS011;68257;43.514;1.498;2024-02-16T04:24:08;17.60;;;4.37;;
78877;SDS011;68257;43.514;1.498;2024-02-16T04:26:33;16.90;;;4.07;;
78877;SDS011;68257;43.514;1.498;2024-02-16T04:28:59;14.07;;;4.30;;
78877;SDS011;68257;43.514;1.498;2024-02-16T04:31:24;14.93;;;4.00;;
78877;SDS011;68257;43.514;1.498;2024-02-16T04:33:49;16.93;;;4.57;;
78877;SDS011;68257;43.514;1.498;2024-02-16T04:36:15;14.77;;;5.00;;
78877;SDS011;68257;43.514;1.498;2024-02-16T04:38:41;13.82;;;4.22;;
78877;SDS011;68257;43.514;1.498;2024-02-16T04:41:06;14.27;;;4.10;;
78877;SDS011;68257;43.514;1.498;2024-02-16T04:43:32;16.30;;;4.82;;
78877;SDS011;68257;43.514;1.498;2024-02-16T04:45:58;13.50;;;4.37;;
78877;SDS011;68257;43.514;1.498;2024-02-16T04:48:24;14.25;;;4.63;;
78877;SDS011;68257;43.514;1.498;2024-02-16T04:50:50;12.23;;;4.57;;
78877;SDS011;68257;43.514;1.498;2024-02-16T04:53:16;13.30;;;4.07;;
78877;SDS011;68257;43.514;1.498;2024-02-16T04:55:42;11.25;;;3.78;;
78877;SDS011;68257;43.514;1.498;2024-02-16T04:58:07;14.25;;;3.97;;
78877;SDS011;68257;43.514;1.498;2024-02-16T05:00:37;13.03;;;3.70;;
78877;SDS011;68257;43.514;1.498;2024-02-16T05:03:03;12.95;;;4.07;;
78877;SDS011;68257;43.514;1.498;2024-02-16T05:05:29;13.45;;;3.90;;
78877;SDS011;68257;43.514;1.498;2024-02-16T05:07:55;11.57;;;3.90;;
78877;SDS011;68257;43.514;1.498;2024-02-16T05:10:21;15.73;;;4.00;;
78877;SDS011;68257;43.514;1.498;2024-02-16T05:12:46;12.10;;;4.13;;
78877;SDS011;68257;43.514;1.498;2024-02-16T05:15:12;12.83;;;4.37;;
78877;SDS011;68257;43.514;1.498;2024-02-16T05:17:40;14.75;;;4.53;;
78877;SDS011;68257;43.514;1.498;2024-02-16T05:20:12;18.63;;;4.70;;
78877;SDS011;68257;43.514;1.498;2024-02-16T05:22:41;12.53;;;4.80;;
78877;SDS011;68257;43.514;1.498;2024-02-16T05:25:08;11.77;;;4.88;;
78877;SDS011;68257;43.514;1.498;2024-02-16T05:27:34;14.52;;;4.63;;
78877;SDS011;68257;43.514;1.498;2024-02-16T05:29:59;12.20;;;4.20;;
78877;SDS011;68257;43.514;1.498;2024-02-16T05:32:25;13.60;;;4.73;;
78877;SDS011;68257;43.514;1.498;2024-02-16T05:34:51;16.38;;;4.55;;
78877;SDS011;68257;43.514;1.498;2024-02-16T05:37:16;13.57;;;4.82;;
78877;SDS011;68257;43.514;1.498;2024-02-16T05:39:43;12.73;;;4.55;;
78877;SDS011;68257;43.514;1.498;2024-02-16T05:42:19;15.30;;;5.38;;
78877;SDS011;68257;43.514;1.498;2024-02-16T05:44:47;12.55;;;4.45;;
78877;SDS011;68257;43.514;1.498;2024-02-16T05:47:13;13.38;;;4.30;;
78877;SDS011;68257;43.514;1.498;2024-02-16T05:49:39;12.95;;;4.40;;
78877;SDS011;68257;43.514;1.498;2024-02-16T05:52:05;12.05;;;4.93;;
78877;SDS011;68257;43.514;1.498;2024-02-16T05:54:43;11.77;;;4.55;;
78877;SDS011;68257;43.514;1.498;2024-02-16T05:57:09;16.90;;;5.18;;
78877;SDS011;68257;43.514;1.498;2024-02-16T05:59:35;14.30;;;5.10;;
78877;SDS011;68257;43.514;1.498;2024-02-16T06:02:00;14.15;;;5.80;;
78877;SDS011;68257;43.514;1.498;2024-02-16T06:04:26;12.33;;;5.13;;
78877;SDS011;68257;43.514;1.498;2024-02-16T06:06:51;12.97;;;5.00;;
78877;SDS011;68257;43.514;1.498;2024-02-16T06:09:18;11.75;;;4.63;;
78877;SDS011;68257;43.514;1.498;2024-02-16T06:11:44;12.90;;;5.10;;
78877;SDS011;68257;43.514;1.498;2024-02-16T06:14:09;11.90;;;5.20;;
78877;SDS011;68257;43.514;1.498;2024-02-16T06:16:34;11.00;;;5.43;;
78877;SDS011;68257;43.514;1.498;2024-02-16T06:19:00;11.50;;;5.17;;
78877;SDS011;68257;43.514;1.498;2024-02-16T06:21:25;11.68;;;5.00;;
78877;SDS011;68257;43.514;1.498;2024-02-16T06:23:51;8.93;;;4.87;;
78877;SDS011;68257;43.514;1.498;2024-02-16T06:26:16;11.37;;;4.73;;
78877;SDS011;68257;43.514;1.498;2024-02-16T06:28:41;10.10;;;4.80;;
78877;SDS011;68257;43.514;1.498;2024-02-16T06:31:07;8.17;;;3.47;;
78877;SDS011;68257;43.514;1.498;2024-02-16T06:33:32;7.20;;;3.10;;
78877;SDS011;68257;43.514;1.498;2024-02-16T06:35:57;6.50;;;3.20;;
78877;SDS011;68257;43.514;1.498;2024-02-16T06:38:23;7.03;;;4.13;;
78877;SDS011;68257;43.514;1.498;2024-02-16T06:40:49;8.60;;;4.03;;
78877;SDS011;68257;43.514;1.498;2024-02-16T06:43:14;7.30;;;3.40;;
78877;SDS011;68257;43.514;1.498;2024-02-16T06:45:39;5.00;;;2.47;;
78877;SDS011;68257;43.514;1.498;2024-02-16T06:48:05;5.82;;;2.50;;
78877;SDS011;68257;43.514;1.498;2024-02-16T06:50:31;4.80;;;1.97;;
78877;SDS011;68257;43.514;1.498;2024-02-16T06:52:56;5.32;;;2.40;;
78877;SDS011;68257;43.514;1.498;2024-02-16T06:55:22;6.90;;;2.88;;
78877;SDS011;68257;43.514;1.498;2024-02-16T06:57:47;6.30;;;2.43;;
78877;SDS011;68257;43.514;1.498;2024-02-16T07:00:13;9.50;;;5.57;;
78877;SDS011;68257;43.514;1.498;2024-02-16T07:02:40;7.38;;;3.78;;
78877;SDS011;68257;43.514;1.498;2024-02-16T07:05:07;7.63;;;4.13;;
78877;SDS011;68257;43.514;1.498;2024-02-16T07:07:33;9.10;;;4.97;;
78877;SDS011;68257;43.514;1.498;2024-02-16T07:10:01;8.40;;;4.30;;
78877;SDS011;68257;43.514;1.498;2024-02-16T07:12:26;7.57;;;6.07;;
78877;SDS011;68257;43.514;1.498;2024-02-16T07:14:52;10.00;;;4.33;;
78877;SDS011;68257;43.514;1.498;2024-02-16T07:17:17;12.03;;;4.27;;
78877;SDS011;68257;43.514;1.498;2024-02-16T07:19:42;8.65;;;5.30;;
78877;SDS011;68257;43.514;1.498;2024-02-16T07:22:08;8.27;;;4.60;;
78877;SDS011;68257;43.514;1.498;2024-02-16T07:24:35;8.30;;;3.80;;
78877;SDS011;68257;43.514;1.498;2024-02-16T07:27:00;6.10;;;3.55;;
78877;SDS011;68257;43.514;1.498;2024-02-16T07:29:26;7.63;;;3.97;;
78877;SDS011;68257;43.514;1.498;2024-02-16T07:31:53;7.07;;;3.58;;
78877;SDS011;68257;43.514;1.498;2024-02-16T07:34:18;9.20;;;4.75;;
78877;SDS011;68257;43.514;1.498;2024-02-16T07:36:44;9.55;;;6.38;;
78877;SDS011;68257;43.514;1.498;2024-02-16T07:39:10;10.43;;;6.73;;
78877;SDS011;68257;43.514;1.498;2024-02-16T07:41:37;12.00;;;5.85;;
78877;SDS011;68257;43.514;1.498;2024-02-16T07:44:02;8.93;;;5.10;;
78877;SDS011;68257;43.514;1.498;2024-02-16T07:46:28;7.82;;;4.75;;
78877;SDS011;68257;43.514;1.498;2024-02-16T07:48:53;9.27;;;4.93;;
78877;SDS011;68257;43.514;1.498;2024-02-16T07:51:19;7.32;;;4.18;;
78877;SDS011;68257;43.514;1.498;2024-02-16T07:53:45;4.83;;;2.40;;
78877;SDS011;68257;43.514;1.498;2024-02-16T07:56:11;4.77;;;2.10;;
78877;SDS011;68257;43.514;1.498;2024-02-16T07:58:37;4.40;;;2.65;;
78877;SDS011;68257;43.514;1.498;2024-02-16T08:01:02;5.27;;;2.57;;
78877;SDS011;68257;43.514;1.498;2024-02-16T08:03:28;5.70;;;2.30;;
78877;SDS011;68257;43.514;1.498;2024-02-16T08:05:54;6.18;;;2.80;;
78877;SDS011;68257;43.514;1.498;2024-02-16T08:08:21;3.80;;;1.73;;
78877;SDS011;68257;43.514;1.498;2024-02-16T08:10:48;4.55;;;2.03;;
78877;SDS011;68257;43.514;1.498;2024-02-16T08:13:13;4.77;;;2.00;;
78877;SDS011;68257;43.514;1.498;2024-02-16T08:15:38;3.60;;;1.80;;
78877;SDS011;68257;43.514;1.498;2024-02-16T08:18:04;4.43;;;1.50;;
78877;SDS011;68257;43.514;1.498;2024-02-16T08:20:30;3.92;;;1.80;;
78877;SDS011;68257;43.514;1.498;2024-02-16T08:22:56;4.70;;;1.70;;
78877;SDS011;68257;43.514;1.498;2024-02-16T08:25:21;4.37;;;1.93;;
78877;SDS011;68257;43.514;1.498;2024-02-16T08:27:47;5.10;;;1.83;;
78877;SDS011;68257;43.514;1.498;2024-02-16T08:30:14;4.97;;;1.90;;
78877;SDS011;68257;43.514;1.498;2024-02-16T08:32:39;5.40;;;1.87;;
78877;SDS011;68257;43.514;1.498;2024-02-16T08:35:05;4.10;;;2.40;;
78877;SDS011;68257;43.514;1.498;2024-02-16T08:37:31;4.30;;;1.90;;
78877;SDS011;68257;43.514;1.498;2024-02-16T08:39:57;6.90;;;2.63;;
78877;SDS011;68257;43.514;1.498;2024-02-16T08:42:22;5.22;;;1.70;;
78877;SDS011;68257;43.514;1.498;2024-02-16T08:44:48;4.30;;;1.50;;
78877;SDS011;68257;43.514;1.498;2024-02-16T08:47:14;3.67;;;1.95;;
78877;SDS011;68257;43.514;1.498;2024-02-16T08:49:40;5.53;;;2.92;;
78877;SDS011;68257;43.514;1.498;2024-02-16T08:52:07;5.30;;;2.97;;
78877;SDS011;68257;43.514;1.498;2024-02-16T08:54:32;5.60;;;2.87;;
78877;SDS011;68257;43.514;1.498;2024-02-16T08:56:58;5.13;;;2.70;;
78877;SDS011;68257;43.514;1.498;2024-02-16T08:59:23;6.87;;;2.90;;
78877;SDS011;68257;43.514;1.498;2024-02-16T09:01:49;6.25;;;3.28;;
78877;SDS011;68257;43.514;1.498;2024-02-16T09:04:14;4.57;;;2.23;;
78877;SDS011;68257;43.514;1.498;2024-02-16T09:06:40;7.23;;;2.20;;
78877;SDS011;68257;43.514;1.498;2024-02-16T09:09:06;4.97;;;1.90;;
78877;SDS011;68257;43.514;1.498;2024-02-16T09:11:32;6.43;;;2.20;;
78877;SDS011;68257;43.514;1.498;2024-02-16T09:13:58;5.07;;;1.90;;
78877;SDS011;68257;43.514;1.498;2024-02-16T09:16:24;4.00;;;1.50;;
78877;SDS011;68257;43.514;1.498;2024-02-16T09:18:49;3.77;;;1.30;;
78877;SDS011;68257;43.514;1.498;2024-02-16T09:21:14;3.80;;;1.27;;
78877;SDS011;68257;43.514;1.498;2024-02-16T09:23:40;5.20;;;1.52;;
78877;SDS011;68257;43.514;1.498;2024-02-16T09:26:05;4.50;;;1.52;;
78877;SDS011;68257;43.514;1.498;2024-02-16T09:28:34;5.30;;;1.10;;
78877;SDS011;68257;43.514;1.498;2024-02-16T09:31:14;3.88;;;1.30;;
78877;SDS011;68257;43.514;1.498;2024-02-16T09:33:39;4.05;;;1.38;;
78877;SDS011;68257;43.514;1.498;2024-02-16T09:36:05;4.85;;;1.65;;
78877;SDS011;68257;43.514;1.498;2024-02-16T09:38:31;3.43;;;1.33;;
78877;SDS011;68257;43.514;1.498;2024-02-16T09:40:57;3.58;;;1.60;;
78877;SDS011;68257;43.514;1.498;2024-02-16T09:43:23;5.77;;;1.83;;
78877;SDS011;68257;43.514;1.498;2024-02-16T09:45:52;5.65;;;1.50;;
78877;SDS011;68257;43.514;1.498;2024-02-16T09:48:26;4.35;;;1.70;;
78877;SDS011;68257;43.514;1.498;2024-02-16T09:50:56;5.27;;;1.60;;
78877;SDS011;68257;43.514;1.498;2024-02-16T09:53:25;5.97;;;2.20;;
78877;SDS011;68257;43.514;1.498;2024-02-16T09:55:53;4.85;;;2.30;;
78877;SDS011;68257;43.514;1.498;2024-02-16T09:58:18;4.57;;;2.00;;
78877;SDS011;68257;43.514;1.498;2024-02-16T10:00:48;3.43;;;1.77;;
78877;SDS011;68257;43.514;1.498;2024-02-16T10:03:26;5.45;;;2.35;;
78877;SDS011;68257;43.514;1.498;2024-02-16T10:06:03;5.03;;;2.10;;
78877;SDS011;68257;43.514;1.498;2024-02-16T10:08:32;5.95;;;2.50;;
78877;SDS011;68257;43.514;1.498;2024-02-16T10:11:05;8.13;;;2.40;;
78877;SDS011;68257;43.514;1.498;2024-02-16T10:13:31;5.65;;;2.20;;
78877;SDS011;68257;43.514;1.498;2024-02-16T10:16:06;9.05;;;2.67;;
78877;SDS011;68257;43.514;1.498;2024-02-16T10:18:34;5.60;;;2.40;;
78877;SDS011;68257;43.514;1.498;2024-02-16T10:21:02;6.47;;;2.13;;
78877;SDS011;68257;43.514;1.498;2024-02-16T10:23:28;7.07;;;2.50;;
78877;SDS011;68257;43.514;1.498;2024-02-16T10:25:54;7.05;;;2.20;;
78877;SDS011;68257;43.514;1.498;2024-02-16T10:28:19;7.17;;;2.00;;
78877;SDS011;68257;43.514;1.498;2024-02-16T10:30:46;7.15;;;2.13;;
78877;SDS011;68257;43.514;1.498;2024-02-16T10:33:13;8.05;;;2.30;;
78877;SDS011;68257;43.514;1.498;2024-02-16T10:35:39;7.30;;;2.30;;
78877;SDS011;68257;43.514;1.498;2024-02-16T10:38:05;8.68;;;2.53;;
78877;SDS011;68257;43.514;1.498;2024-02-16T10:40:38;6.75;;;2.35;;
78877;SDS011;68257;43.514;1.498;2024-02-16T10:43:04;7.25;;;2.15;;
78877;SDS011;68257;43.514;1.498;2024-02-16T10:45:36;6.45;;;2.25;;
78877;SDS011;68257;43.514;1.498;2024-02-16T10:48:03;8.80;;;2.25;;
78877;SDS011;68257;43.514;1.498;2024-02-16T10:50:30;7.03;;;2.17;;
78877;SDS011;68257;43.514;1.498;2024-02-16T10:52:57;7.57;;;2.70;;
78877;SDS011;68257;43.514;1.498;2024-02-16T10:55:25;7.82;;;2.80;;
78877;SDS011;68257;43.514;1.498;2024-02-16T10:57:50;6.23;;;2.20;;
78877;SDS011;68257;43.514;1.498;2024-02-16T11:00:19;5.82;;;1.42;;
78877;SDS011;68257;43.514;1.498;2024-02-16T11:02:57;4.65;;;1.33;;
78877;SDS011;68257;43.514;1.498;2024-02-16T11:05:31;4.95;;;1.40;;
78877;SDS011;68257;43.514;1.498;2024-02-16T11:08:03;6.10;;;1.47;;
78877;SDS011;68257;43.514;1.498;2024-02-16T11:10:29;6.05;;;1.67;;
78877;SDS011;68257;43.514;1.498;2024-02-16T11:13:00;6.78;;;1.40;;
78877;SDS011;68257;43.514;1.498;2024-02-16T11:15:28;6.53;;;1.60;;
78877;SDS011;68257;43.514;1.498;2024-02-16T11:17:59;7.10;;;1.77;;
78877;SDS011;68257;43.514;1.498;2024-02-16T11:20:25;6.70;;;2.00;;
78877;SDS011;68257;43.514;1.498;2024-02-16T11:22:51;4.95;;;1.40;;
78877;SDS011;68257;43.514;1.498;2024-02-16T11:25:17;7.45;;;1.83;;
78877;SDS011;68257;43.514;1.498;2024-02-16T11:27:43;10.67;;;2.40;;
78877;SDS011;68257;43.514;1.498;2024-02-16T11:30:11;5.73;;;2.13;;
78877;SDS011;68257;43.514;1.498;2024-02-16T11:32:37;8.30;;;1.85;;
78877;SDS011;68257;43.514;1.498;2024-02-16T11:35:08;7.20;;;1.80;;
78877;SDS011;68257;43.514;1.498;2024-02-16T11:37:34;8.02;;;2.03;;
78877;SDS011;68257;43.514;1.498;2024-02-16T11:39:59;7.82;;;2.55;;
78877;SDS011;68257;43.514;1.498;2024-02-16T11:42:25;7.63;;;2.13;;
78877;SDS011;68257;43.514;1.498;2024-02-16T11:44:51;7.70;;;2.03;;
78877;SDS011;68257;43.514;1.498;2024-02-16T11:47:22;7.53;;;2.22;;
78877;SDS011;68257;43.514;1.498;2024-02-16T11:50:06;8.80;;;2.40;;
78877;SDS011;68257;43.514;1.498;2024-02-16T11:52:36;9.00;;;2.37;;
78877;SDS011;68257;43.514;1.498;2024-02-16T11:55:03;7.50;;;2.53;;
78877;SDS011;68257;43.514;1.498;2024-02-16T11:57:29;9.63;;;2.15;;
78877;SDS011;68257;43.514;1.498;2024-02-16T11:59:54;10.20;;;2.72;;
78877;SDS011;68257;43.514;1.498;2024-02-16T12:02:20;9.77;;;2.47;;
78877;SDS011;68257;43.514;1.498;2024-02-16T12:04:47;12.85;;;3.45;;
78877;SDS011;68257;43.514;1.498;2024-02-16T12:07:12;11.30;;;3.30;;
78877;SDS011;68257;43.514;1.498;2024-02-16T12:09:39;8.30;;;3.13;;
78877;SDS011;68257;43.514;1.498;2024-02-16T12:12:05;9.88;;;3.30;;
78877;SDS011;68257;43.514;1.498;2024-02-16T12:14:31;9.45;;;3.05;;
78877;SDS011;68257;43.514;1.498;2024-02-16T12:16:57;8.77;;;2.88;;
78877;SDS011;68257;43.514;1.498;2024-02-16T12:19:23;13.57;;;2.80;;
78877;SDS011;68257;43.514;1.498;2024-02-16T12:21:49;9.30;;;2.57;;
78877;SDS011;68257;43.514;1.498;2024-02-16T12:24:15;11.50;;;3.35;;
78877;SDS011;68257;43.514;1.498;2024-02-16T12:26:41;11.63;;;2.90;;
78877;SDS011;68257;43.514;1.498;2024-02-16T12:29:07;7.43;;;2.60;;
78877;SDS011;68257;43.514;1.498;2024-02-16T12:31:33;12.10;;;2.93;;
78877;SDS011;68257;43.514;1.498;2024-02-16T12:34:02;9.90;;;3.03;;
78877;SDS011;68257;43.514;1.498;2024-02-16T12:36:29;13.45;;;3.00;;
78877;SDS011;68257;43.514;1.498;2024-02-16T12:38:54;12.63;;;3.20;;
78877;SDS011;68257;43.514;1.498;2024-02-16T12:41:20;14.20;;;3.70;;
78877;SDS011;68257;43.514;1.498;2024-02-16T12:43:45;16.07;;;3.80;;
78877;SDS011;68257;43.514;1.498;2024-02-16T12:46:11;9.37;;;2.60;;
78877;SDS011;68257;43.514;1.498;2024-02-16T12:48:36;15.77;;;4.13;;
78877;SDS011;68257;43.514;1.498;2024-02-16T12:51:01;8.93;;;2.80;;
78877;SDS011;68257;43.514;1.498;2024-02-16T12:53:27;14.10;;;3.27;;
78877;SDS011;68257;43.514;1.498;2024-02-16T12:55:55;10.95;;;2.85;;
78877;SDS011;68257;43.514;1.498;2024-02-16T12:58:20;12.73;;;3.40;;
78877;SDS011;68257;43.514;1.498;2024-02-16T13:00:46;12.50;;;3.60;;
78877;SDS011;68257;43.514;1.498;2024-02-16T13:03:11;12.40;;;3.55;;
78877;SDS011;68257;43.514;1.498;2024-02-16T13:05:36;9.10;;;2.90;;
78877;SDS011;68257;43.514;1.498;2024-02-16T13:08:02;14.23;;;4.13;;
78877;SDS011;68257;43.514;1.498;2024-02-16T13:10:27;9.83;;;3.13;;
78877;SDS011;68257;43.514;1.498;2024-02-16T13:12:53;11.33;;;2.60;;
78877;SDS011;68257;43.514;1.498;2024-02-16T13:15:18;12.83;;;3.30;;
78877;SDS011;68257;43.514;1.498;2024-02-16T13:17:43;11.48;;;3.00;;
78877;SDS011;68257;43.514;1.498;2024-02-16T13:20:09;8.00;;;2.23;;
78877;SDS011;68257;43.514;1.498;2024-02-16T13:22:35;11.60;;;2.57;;
78877;SDS011;68257;43.514;1.498;2024-02-16T13:25:01;9.88;;;2.80;;
78877;SDS011;68257;43.514;1.498;2024-02-16T13:27:28;10.20;;;2.60;;
78877;SDS011;68257;43.514;1.498;2024-02-16T13:29:54;8.52;;;2.63;;
78877;SDS011;68257;43.514;1.498;2024-02-16T13:32:19;10.73;;;2.50;;
78877;SDS011;68257;43.514;1.498;2024-02-16T13:34:44;10.63;;;3.07;;
78877;SDS011;68257;43.514;1.498;2024-02-16T13:37:10;9.60;;;2.43;;
78877;SDS011;68257;43.514;1.498;2024-02-16T13:39:36;8.73;;;2.30;;
78877;SDS011;68257;43.514;1.498;2024-02-16T13:42:01;10.53;;;2.43;;
78877;SDS011;68257;43.514;1.498;2024-02-16T13:44:26;7.70;;;2.63;;
78877;SDS011;68257;43.514;1.498;2024-02-16T13:46:52;8.23;;;2.30;;
78877;SDS011;68257;43.514;1.498;2024-02-16T13:49:17;8.70;;;2.20;;
78877;SDS011;68257;43.514;1.498;2024-02-16T13:51:43;8.23;;;2.07;;
78877;SDS011;68257;43.514;1.498;2024-02-16T13:54:08;10.07;;;2.30;;
78877;SDS011;68257;43.514;1.498;2024-02-16T13:56:33;7.33;;;1.90;;
78877;SDS011;68257;43.514;1.498;2024-02-16T13:59:01;8.30;;;2.10;;
78877;SDS011;68257;43.514;1.498;2024-02-16T14:01:27;6.00;;;1.92;;
78877;SDS011;68257;43.514;1.498;2024-02-16T14:03:54;8.85;;;2.58;;
78877;SDS011;68257;43.514;1.498;2024-02-16T14:06:20;6.90;;;2.20;;
78877;SDS011;68257;43.514;1.498;2024-02-16T14:08:45;6.47;;;1.90;;
78877;SDS011;68257;43.514;1.498;2024-02-16T14:11:12;5.80;;;1.90;;
78877;SDS011;68257;43.514;1.498;2024-02-16T14:13:38;7.35;;;1.95;;
78877;SDS011;68257;43.514;1.498;2024-02-16T14:16:04;6.77;;;1.80;;
78877;SDS011;68257;43.514;1.498;2024-02-16T14:18:30;4.78;;;2.08;;
78877;SDS011;68257;43.514;1.498;2024-02-16T14:20:55;8.70;;;1.97;;
78877;SDS011;68257;43.514;1.498;2024-02-16T14:23:21;5.57;;;1.50;;
78877;SDS011;68257;43.514;1.498;2024-02-16T14:25:46;4.63;;;1.50;;
78877;SDS011;68257;43.514;1.498;2024-02-16T14:28:12;4.43;;;1.30;;
78877;SDS011;68257;43.514;1.498;2024-02-16T14:30:37;3.70;;;1.03;;
78877;SDS011;68257;43.514;1.498;2024-02-16T14:33:03;3.50;;;1.25;;
78877;SDS011;68257;43.514;1.498;2024-02-16T14:35:29;3.27;;;1.20;;